createdAt,value
2018-07-28T00:00:10.169Z,18.20
2018-07-28T00:02:39.449Z,18.20
2018-07-28T00:05:09.563Z,18.20
2018-07-28T00:07:38.884Z,18.10
2018-07-28T00:10:10.406Z,18.10
2018-07-28T00:12:39.661Z,18.10
2018-07-28T00:15:09.976Z,18.10
2018-07-28T00:17:39.761Z,18.20
2018-07-28T00:20:10.519Z,18.20
2018-07-28T00:22:39.898Z,18.30
2018-07-28T00:25:10.817Z,18.30
2018-07-28T00:27:40.461Z,18.20
2018-07-28T00:30:14.144Z,18.20
2018-07-28T00:32:43.405Z,18.10
2018-07-28T00:35:12.732Z,18.10
2018-07-28T00:37:42.068Z,18.00
2018-07-28T00:40:11.404Z,18.00
2018-07-28T00:42:40.815Z,18.10
2018-07-28T00:45:10.080Z,18.10
2018-07-28T00:47:39.443Z,18.20
2018-07-28T00:50:09.337Z,18.30
2018-07-28T00:52:38.775Z,18.20
2018-07-28T00:55:08.236Z,18.20
2018-07-28T00:57:37.573Z,18.10
2018-07-28T01:00:07.828Z,18.20
2018-07-28T01:02:37.096Z,18.30
2018-07-28T01:05:06.670Z,18.40
2018-07-28T01:07:35.915Z,18.30
2018-07-28T01:10:05.680Z,18.40
2018-07-28T01:12:35.013Z,18.60
2018-07-28T01:15:05.346Z,18.80
2018-07-28T01:17:34.707Z,19.20
2018-07-28T01:20:04.393Z,19.30
2018-07-28T01:22:33.636Z,19.60
2018-07-28T01:25:03.026Z,19.90
2018-07-28T01:27:32.438Z,20.20
2018-07-28T01:30:01.747Z,20.30
2018-07-28T01:32:31.123Z,20.40
2018-07-28T01:35:00.399Z,20.50
2018-07-28T01:37:29.757Z,20.80
2018-07-28T01:39:59.083Z,21.00
2018-07-28T01:42:28.475Z,21.00
2018-07-28T01:44:57.778Z,21.00
2018-07-28T01:47:27.183Z,21.00
2018-07-28T01:49:56.471Z,21.00
2018-07-28T01:52:25.843Z,21.10
2018-07-28T01:54:55.278Z,21.10
2018-07-28T01:57:24.667Z,21.20
2018-07-28T01:59:54.080Z,21.40
2018-07-28T02:02:23.386Z,21.40
2018-07-28T02:04:52.786Z,21.50
2018-07-28T02:07:22.157Z,21.50
2018-07-28T02:09:51.484Z,21.50
2018-07-28T02:12:21.017Z,21.40
2018-07-28T02:14:50.369Z,21.30
2018-07-28T02:17:19.754Z,21.30
2018-07-28T02:19:49.102Z,21.30
2018-07-28T02:22:18.373Z,21.30
2018-07-28T02:24:47.776Z,21.20
2018-07-28T02:27:17.144Z,21.00
2018-07-28T02:29:46.443Z,21.00
2018-07-28T02:32:15.779Z,20.90
2018-07-28T02:34:45.149Z,20.90
2018-07-28T02:37:14.597Z,20.90
2018-07-28T02:39:43.837Z,20.90
2018-07-28T02:42:13.162Z,20.90
2018-07-28T02:44:42.455Z,21.00
2018-07-28T02:47:11.684Z,21.00
2018-07-28T02:49:41.002Z,21.00
2018-07-28T02:52:10.371Z,21.00
2018-07-28T02:54:39.601Z,21.00
2018-07-28T02:57:08.918Z,21.00
2018-07-28T02:59:38.178Z,21.00
2018-07-28T03:02:07.563Z,21.00
2018-07-28T03:04:36.780Z,21.00
2018-07-28T03:07:06.635Z,21.00
2018-07-28T03:09:36.928Z,21.10
2018-07-28T03:12:06.442Z,21.10
2018-07-28T03:14:35.747Z,21.10
2018-07-28T03:17:05.228Z,21.20
2018-07-28T03:19:34.496Z,21.20
2018-07-28T03:22:03.920Z,21.20
2018-07-28T03:24:33.224Z,21.20
2018-07-28T03:27:02.478Z,21.10
2018-07-28T03:29:31.876Z,21.10
2018-07-28T03:32:01.136Z,21.20
2018-07-28T03:34:30.472Z,21.00
2018-07-28T03:36:59.719Z,20.80
2018-07-28T03:39:29.075Z,20.80
2018-07-28T03:41:58.376Z,20.60
2018-07-28T03:44:28.564Z,20.40
2018-07-28T03:46:58.943Z,20.20
2018-07-28T03:49:28.189Z,20.00
2018-07-28T03:51:57.509Z,19.70
2018-07-28T03:54:26.796Z,19.60
2018-07-28T03:56:56.056Z,19.50
2018-07-28T03:59:26.608Z,19.40
2018-07-28T04:01:55.932Z,19.30
2018-07-28T04:04:25.260Z,19.30
2018-07-28T04:06:54.564Z,19.30
2018-07-28T04:09:23.825Z,19.40
2018-07-28T04:11:53.126Z,19.50
2018-07-28T04:14:22.570Z,19.70
2018-07-28T04:16:51.895Z,19.90
2018-07-28T04:19:21.216Z,20.10
2018-07-28T04:21:50.542Z,20.20
2018-07-28T04:24:19.897Z,20.30
2018-07-28T04:26:49.212Z,20.20
2018-07-28T04:29:18.587Z,20.20
2018-07-28T04:31:47.916Z,20.10
2018-07-28T04:34:17.227Z,20.10
2018-07-28T04:36:46.488Z,20.30
2018-07-28T04:39:17.034Z,20.40
2018-07-28T04:41:46.352Z,20.50
2018-07-28T04:44:15.620Z,20.50
2018-07-28T04:46:44.928Z,20.70
2018-07-28T04:49:14.185Z,20.80
2018-07-28T04:51:43.565Z,20.90
2018-07-28T04:54:12.881Z,20.90
2018-07-28T04:56:42.205Z,20.90
2018-07-28T04:59:11.465Z,21.00
2018-07-28T05:01:40.712Z,21.00
2018-07-28T05:04:10.073Z,21.00
2018-07-28T05:06:39.456Z,20.90
2018-07-28T05:09:10.310Z,20.90
2018-07-28T05:11:39.639Z,20.90
2018-07-28T05:14:08.969Z,20.90
2018-07-28T05:16:38.457Z,20.90
2018-07-28T05:19:07.705Z,20.90
2018-07-28T05:21:36.968Z,20.90
2018-07-28T05:24:06.661Z,21.00
2018-07-28T05:26:36.176Z,21.20
2018-07-28T05:29:05.869Z,21.40
2018-07-28T05:31:35.148Z,21.50
2018-07-28T05:34:04.457Z,21.60
2018-07-28T05:36:33.768Z,21.60
2018-07-28T05:39:03.228Z,21.60
2018-07-28T05:41:32.558Z,21.60
2018-07-28T05:44:01.993Z,21.70
2018-07-28T05:46:31.353Z,21.70
2018-07-28T05:49:00.657Z,21.80
2018-07-28T05:51:30.783Z,21.80
2018-07-28T05:54:00.177Z,22.00
2018-07-28T05:56:29.684Z,22.20
2018-07-28T05:58:59.675Z,22.40
2018-07-28T06:01:29.726Z,22.60
2018-07-28T06:03:59.383Z,22.60
2018-07-28T06:06:28.720Z,22.70
2018-07-28T06:08:58.130Z,22.80
2018-07-28T06:11:27.430Z,22.80
2018-07-28T06:13:56.776Z,22.80
2018-07-28T06:16:26.324Z,22.80
2018-07-28T06:18:55.732Z,22.80
2018-07-28T06:21:25.195Z,22.70
2018-07-28T06:23:54.609Z,22.70
2018-07-28T06:26:23.993Z,22.80
2018-07-28T06:28:53.500Z,22.80
2018-07-28T06:31:24.948Z,22.80
2018-07-28T06:33:54.545Z,22.70
2018-07-28T06:36:24.068Z,22.50
2018-07-28T06:38:53.650Z,22.40
2018-07-28T06:41:23.089Z,22.20
2018-07-28T06:43:52.421Z,22.30
2018-07-28T06:46:21.937Z,22.40
2018-07-28T06:48:51.588Z,22.40
2018-07-28T06:51:21.079Z,22.50
2018-07-28T06:53:50.657Z,22.60
2018-07-28T06:56:20.010Z,22.70
2018-07-28T06:58:49.367Z,22.80
2018-07-28T07:01:19.108Z,22.90
2018-07-28T07:03:48.847Z,23.00
2018-07-28T07:06:18.288Z,23.10
2018-07-28T07:08:47.725Z,23.30
2018-07-28T07:11:17.092Z,23.50
2018-07-28T07:13:46.426Z,23.70
2018-07-28T07:16:15.805Z,23.90
2018-07-28T07:18:45.143Z,24.10
2018-07-28T07:21:14.781Z,24.30
2018-07-28T07:23:44.330Z,24.50
2018-07-28T07:26:13.692Z,24.60
2018-07-28T07:28:43.173Z,24.90
2018-07-28T07:31:12.588Z,25.30
2018-07-28T07:33:42.163Z,25.60
2018-07-28T07:36:11.827Z,26.00
2018-07-28T07:38:41.200Z,26.20
2018-07-28T07:41:10.782Z,26.30
2018-07-28T07:43:40.417Z,26.60
2018-07-28T07:46:10.331Z,26.70
2018-07-28T07:48:39.833Z,26.70
2018-07-28T07:51:09.332Z,26.80
2018-07-28T07:56:08.209Z,27.20
2018-07-28T07:58:37.573Z,27.20
2018-07-28T08:01:09.061Z,27.20
2018-07-28T08:03:38.607Z,27.40
2018-07-28T08:06:08.019Z,27.40
2018-07-28T08:08:37.452Z,27.50
2018-07-28T08:11:07.958Z,27.70
2018-07-28T08:13:37.435Z,28.20
2018-07-28T08:16:07.012Z,28.50
2018-07-28T08:18:36.674Z,29.10
2018-07-28T08:21:06.417Z,29.30
2018-07-28T08:23:35.795Z,29.60
2018-07-28T08:26:05.495Z,29.50
2018-07-28T08:28:34.900Z,29.30
2018-07-28T08:31:04.288Z,29.10
2018-07-28T08:33:34.141Z,28.90
2018-07-28T08:36:03.577Z,28.90
2018-07-28T08:38:33.300Z,28.90
2018-07-28T08:41:02.610Z,28.90
2018-07-28T08:43:32.000Z,28.90
2018-07-28T08:46:01.502Z,28.70
2018-07-28T08:48:30.948Z,28.50
2018-07-28T08:51:00.689Z,28.10
2018-07-28T08:53:30.060Z,28.20
2018-07-28T08:55:59.655Z,28.20
2018-07-28T08:58:29.090Z,28.00
2018-07-28T09:00:58.540Z,27.80
2018-07-28T09:03:27.870Z,27.30
2018-07-28T09:05:57.358Z,26.60
2018-07-28T09:08:26.722Z,25.90
2018-07-28T09:10:57.132Z,25.30
2018-07-28T09:13:26.797Z,25.00
2018-07-28T09:15:56.209Z,24.80
2018-07-28T09:18:25.760Z,24.70
2018-07-28T09:20:55.402Z,24.60
2018-07-28T09:23:24.865Z,24.70
2018-07-28T09:25:54.170Z,24.90
2018-07-28T09:28:23.517Z,24.90
2018-07-28T09:30:52.987Z,24.90
2018-07-28T09:33:22.456Z,24.90
2018-07-28T09:35:51.790Z,25.00
2018-07-28T09:38:27.473Z,25.10
2018-07-28T09:40:56.834Z,24.90
2018-07-28T09:43:27.274Z,25.10
2018-07-28T09:45:56.663Z,25.20
2018-07-28T09:48:26.061Z,24.90
2018-07-28T09:50:55.381Z,24.10
2018-07-28T09:53:24.781Z,23.60
2018-07-28T09:55:54.200Z,23.20
2018-07-28T09:58:23.534Z,23.00
2018-07-28T10:00:58.387Z,22.80
2018-07-28T10:03:28.725Z,22.60
2018-07-28T10:05:58.251Z,22.50
2018-07-28T10:08:27.696Z,22.20
2018-07-28T10:10:57.113Z,21.80
2018-07-28T10:13:26.648Z,21.30
2018-07-28T10:15:56.059Z,21.00
2018-07-28T10:18:25.471Z,20.70
2018-07-28T10:20:54.971Z,20.50
2018-07-28T10:23:24.383Z,20.40
2018-07-28T10:25:53.778Z,20.40
2018-07-28T10:28:23.216Z,20.50
2018-07-28T10:30:54.841Z,20.60
2018-07-28T10:33:24.193Z,20.80
2018-07-28T10:35:53.566Z,21.00
2018-07-28T10:38:22.931Z,21.20
2018-07-28T10:40:52.295Z,21.30
2018-07-28T10:43:22.684Z,21.30
2018-07-28T10:45:52.049Z,21.50
2018-07-28T10:48:22.666Z,21.50
2018-07-28T10:50:52.070Z,21.40
2018-07-28T10:55:50.468Z,21.30
2018-07-28T10:58:19.875Z,21.40
2018-07-28T11:00:49.394Z,21.50
2018-07-28T11:03:18.866Z,21.50
2018-07-28T11:05:48.395Z,21.70
2018-07-28T11:08:17.949Z,21.80
2018-07-28T11:10:47.254Z,21.80
2018-07-28T11:13:16.660Z,21.60
2018-07-28T11:15:45.948Z,21.50
2018-07-28T11:18:15.344Z,21.40
2018-07-28T11:20:44.702Z,21.40
2018-07-28T11:23:24.009Z,21.50
2018-07-28T11:25:53.400Z,21.60
2018-07-28T11:28:22.655Z,21.70
2018-07-28T11:30:51.984Z,21.90
2018-07-28T11:33:32.564Z,22.10
2018-07-28T11:36:13.041Z,22.30
2018-07-28T11:38:53.947Z,22.60
2018-07-28T11:41:34.607Z,22.90
2018-07-28T11:44:15.213Z,23.30
2018-07-28T11:46:44.536Z,23.50
2018-07-28T11:49:13.921Z,23.90
2018-07-28T11:51:43.199Z,24.30
2018-07-28T11:54:12.582Z,24.70
2018-07-28T11:56:42.385Z,25.00
2018-07-28T11:59:11.698Z,25.00
2018-07-28T12:01:43.090Z,25.00
2018-07-28T12:04:12.490Z,24.90
2018-07-28T12:06:41.959Z,25.00
2018-07-28T12:09:11.265Z,25.00
2018-07-28T12:11:40.569Z,25.20
2018-07-28T12:14:09.918Z,25.50
2018-07-28T12:16:39.262Z,25.70
2018-07-28T12:19:11.088Z,25.70
2018-07-28T12:21:40.467Z,25.40
2018-07-28T12:24:09.786Z,25.30
2018-07-28T12:26:39.125Z,25.00
2018-07-28T12:29:08.459Z,24.90
2018-07-28T12:31:37.784Z,24.50
2018-07-28T12:34:07.084Z,24.40
2018-07-28T12:36:36.470Z,24.50
2018-07-28T12:39:07.948Z,24.50
2018-07-28T12:41:37.308Z,24.60
2018-07-28T12:44:06.660Z,24.80
2018-07-28T12:46:35.997Z,25.10
2018-07-28T12:49:05.270Z,25.60
2018-07-28T12:51:34.578Z,25.80
2018-07-28T12:54:03.939Z,26.00
2018-07-28T12:56:34.233Z,26.70
2018-07-28T12:59:03.509Z,27.30
2018-07-28T13:01:32.813Z,27.20
2018-07-28T13:04:02.400Z,27.60
2018-07-28T13:06:31.643Z,27.90
2018-07-28T13:09:01.417Z,28.20
2018-07-28T13:11:31.572Z,28.20
2018-07-28T13:14:00.863Z,28.40
2018-07-28T13:16:31.430Z,28.20
2018-07-28T13:19:00.802Z,28.40
2018-07-28T13:21:31.199Z,28.40
2018-07-28T13:24:01.562Z,28.40
2018-07-28T13:26:31.059Z,28.50
2018-07-28T13:29:00.372Z,28.60
2018-07-28T13:31:31.836Z,28.30
2018-07-28T13:34:01.212Z,27.70
2018-07-28T13:36:30.814Z,27.00
2018-07-28T13:39:00.181Z,26.60
2018-07-28T13:41:29.584Z,26.20
2018-07-28T13:43:58.956Z,26.20
2018-07-28T13:46:28.331Z,26.10
2018-07-28T13:48:58.758Z,25.90
2018-07-28T13:51:28.059Z,25.60
2018-07-28T13:53:57.379Z,25.50
2018-07-28T13:56:26.908Z,25.40
2018-07-28T13:58:57.222Z,25.30
2018-07-28T14:01:26.572Z,25.30
2018-07-28T14:03:55.930Z,25.20
2018-07-28T14:06:25.325Z,25.10
2018-07-28T14:08:54.618Z,25.00
2018-07-28T14:11:23.964Z,24.90
2018-07-28T14:13:53.295Z,24.90
2018-07-28T14:16:22.586Z,24.90
2018-07-28T14:18:52.090Z,25.10
2018-07-28T14:21:21.331Z,25.10
2018-07-28T14:23:50.734Z,25.40
2018-07-28T14:26:20.091Z,26.00
2018-07-28T14:28:49.453Z,27.20
2018-07-28T14:31:18.799Z,28.10
2018-07-28T14:33:48.148Z,28.60
2018-07-28T14:36:17.506Z,28.90
2018-07-28T14:38:46.804Z,29.40
2018-07-28T14:41:16.120Z,29.70
2018-07-28T14:43:45.723Z,30.10
2018-07-28T14:46:15.093Z,30.60
2018-07-28T14:48:44.444Z,30.90
2018-07-28T14:51:13.812Z,31.00
2018-07-28T14:53:44.173Z,30.90
2018-07-28T14:56:13.504Z,31.30
2018-07-28T14:58:42.874Z,31.30
2018-07-28T15:01:12.221Z,31.40
2018-07-28T15:03:41.593Z,31.10
2018-07-28T15:06:11.223Z,30.50
2018-07-28T15:08:44.428Z,30.40
2018-07-28T15:11:13.845Z,30.80
2018-07-28T15:13:43.154Z,31.00
2018-07-28T15:16:12.512Z,30.20
2018-07-28T15:18:41.872Z,30.40
2018-07-28T15:21:11.316Z,30.60
2018-07-28T15:23:40.785Z,30.20
2018-07-28T15:26:10.369Z,29.30
2018-07-28T15:28:39.815Z,28.20
2018-07-28T15:31:09.183Z,27.80
2018-07-28T15:33:38.541Z,27.40
2018-07-28T15:36:08.722Z,27.10
2018-07-28T15:38:38.083Z,27.20
2018-07-28T15:41:07.472Z,27.10
2018-07-28T15:43:36.756Z,27.20
2018-07-28T15:46:07.258Z,27.40
2018-07-28T15:48:36.587Z,28.30
2018-07-28T15:51:05.934Z,29.10
2018-07-28T15:53:35.280Z,29.60
2018-07-28T15:56:04.653Z,29.10
2018-07-28T15:58:33.919Z,29.40
2018-07-28T16:01:03.335Z,29.20
2018-07-28T16:06:02.780Z,27.30
2018-07-28T16:08:33.117Z,26.80
2018-07-28T16:11:02.497Z,26.30
2018-07-28T16:13:31.767Z,26.10
2018-07-28T16:16:01.037Z,25.80
2018-07-28T16:18:30.310Z,25.90
2018-07-28T16:20:59.636Z,26.00
2018-07-28T16:23:29.030Z,25.90
2018-07-28T16:25:58.355Z,25.80
2018-07-28T16:28:27.722Z,25.50
2018-07-28T16:33:26.056Z,25.40
2018-07-28T16:35:55.414Z,25.40
2018-07-28T16:38:24.816Z,25.20
2018-07-28T16:40:54.344Z,25.10
2018-07-28T16:43:23.624Z,25.00
2018-07-28T16:45:54.070Z,24.90
2018-07-28T16:48:25.624Z,25.00
2018-07-28T16:50:55.827Z,25.10
2018-07-28T16:53:25.827Z,25.40
2018-07-28T16:55:55.470Z,25.40
2018-07-28T16:58:25.307Z,25.50
2018-07-28T17:00:55.236Z,25.70
2018-07-28T17:03:26.942Z,26.20
2018-07-28T17:05:57.773Z,26.00
2018-07-28T17:08:27.147Z,25.40
2018-07-28T17:10:56.425Z,25.10
2018-07-28T17:13:25.859Z,24.90
2018-07-28T17:15:55.194Z,24.70
2018-07-28T17:18:24.713Z,24.80
2018-07-28T17:20:54.017Z,24.60
2018-07-28T17:23:23.332Z,24.50
2018-07-28T17:25:52.693Z,24.40
2018-07-28T17:28:21.971Z,24.30
2018-07-28T17:30:51.540Z,24.30
2018-07-28T17:33:20.801Z,24.30
2018-07-28T17:35:50.229Z,24.20
2018-07-28T17:38:19.653Z,23.90
2018-07-28T17:40:49.272Z,23.80
2018-07-28T17:43:18.698Z,23.50
2018-07-28T17:45:48.203Z,23.30
2018-07-28T17:48:18.628Z,23.20
2018-07-28T17:50:50.249Z,23.30
2018-07-28T17:53:19.682Z,23.20
2018-07-28T17:55:49.023Z,23.20
2018-07-28T17:58:18.549Z,23.10
2018-07-28T18:00:47.923Z,23.10
2018-07-28T18:03:17.338Z,22.90
2018-07-28T18:05:46.739Z,22.80
2018-07-28T18:08:17.071Z,22.70
2018-07-28T18:10:46.646Z,22.60
2018-07-28T18:13:16.208Z,22.50
2018-07-28T18:15:45.567Z,22.40
2018-07-28T18:18:14.899Z,22.30
2018-07-28T18:20:44.300Z,22.30
2018-07-28T18:23:13.763Z,22.20
2018-07-28T18:25:43.139Z,22.00
2018-07-28T18:28:13.636Z,21.90
2018-07-28T18:30:43.008Z,21.90
2018-07-28T18:33:12.424Z,21.80
2018-07-28T18:35:41.743Z,21.80
2018-07-28T18:38:11.060Z,21.60
2018-07-28T18:40:41.474Z,21.50
2018-07-28T18:43:11.791Z,21.30
2018-07-28T18:45:41.216Z,21.30
2018-07-28T18:48:10.753Z,21.20
2018-07-28T18:50:42.174Z,21.10
2018-07-28T18:53:11.491Z,21.00
2018-07-28T18:55:40.841Z,20.90
2018-07-28T18:58:10.221Z,20.90
2018-07-28T19:00:39.505Z,20.70
2018-07-28T19:03:08.851Z,20.60
2018-07-28T19:05:38.212Z,20.50
2018-07-28T19:08:07.562Z,20.30
2018-07-28T19:10:36.962Z,20.20
2018-07-28T19:13:11.688Z,20.10
2018-07-28T19:15:41.640Z,20.00
2018-07-28T19:18:17.057Z,19.80
2018-07-28T19:20:46.980Z,19.80
2018-07-28T19:23:22.396Z,19.70
2018-07-28T19:25:52.484Z,19.60
2018-07-28T19:28:27.538Z,19.60
2018-07-28T19:30:58.154Z,19.50
2018-07-28T19:33:28.200Z,19.30
2018-07-28T19:36:02.684Z,19.00
2018-07-28T19:38:32.151Z,18.80
2018-07-28T19:41:01.744Z,18.60
2018-07-28T19:43:31.103Z,18.50
2018-07-28T19:46:00.431Z,18.30
2018-07-28T19:48:29.813Z,18.30
2018-07-28T19:50:59.208Z,18.20
2018-07-28T19:53:28.558Z,18.10
2018-07-28T19:55:57.845Z,18.10
2018-07-28T19:58:27.154Z,18.00
2018-07-28T20:03:27.402Z,17.90
2018-07-28T20:05:56.733Z,17.90
2018-07-28T20:08:26.059Z,17.90
2018-07-28T20:10:55.401Z,17.90
2018-07-28T20:13:25.549Z,17.80
2018-07-28T20:15:55.772Z,17.70
2018-07-28T20:18:25.590Z,17.70
2018-07-28T20:20:55.510Z,17.70
2018-07-28T20:23:25.288Z,17.70
2018-07-28T20:25:55.457Z,17.60
2018-07-28T20:28:25.426Z,17.60
2018-07-28T20:30:55.704Z,17.60
2018-07-28T20:33:25.121Z,17.50
2018-07-28T20:35:55.166Z,17.50
2018-07-28T20:38:25.197Z,17.50
2018-07-28T20:40:55.292Z,17.40
2018-07-28T20:43:25.368Z,17.40
2018-07-28T20:45:55.204Z,17.40
2018-07-28T20:48:24.942Z,17.40
2018-07-28T20:50:54.869Z,17.40
2018-07-28T20:53:25.108Z,17.30
2018-07-28T20:55:55.153Z,17.30
2018-07-28T20:58:25.519Z,17.20
2018-07-28T21:00:55.396Z,17.10
2018-07-28T21:03:25.544Z,17.00
2018-07-28T21:05:55.421Z,17.00
2018-07-28T21:08:25.990Z,16.90
2018-07-28T21:10:56.382Z,16.80
2018-07-28T21:13:26.109Z,16.80
2018-07-28T21:15:56.382Z,16.70
2018-07-28T21:18:26.240Z,16.60
2018-07-28T21:20:55.561Z,16.60
2018-07-28T21:23:24.900Z,16.60
2018-07-28T21:25:54.143Z,16.50
2018-07-28T21:28:23.485Z,16.50
2018-07-28T21:30:52.773Z,16.40
2018-07-28T21:33:22.025Z,16.40
2018-07-28T21:35:51.423Z,16.40
2018-07-28T21:38:20.769Z,16.30
2018-07-28T21:40:50.060Z,16.30
2018-07-28T21:43:19.450Z,16.30
2018-07-28T21:45:48.764Z,16.20
2018-07-28T21:48:18.011Z,16.30
2018-07-28T21:50:47.527Z,16.20
2018-07-28T21:53:16.837Z,16.10
2018-07-28T21:55:46.210Z,16.10
2018-07-28T21:58:15.535Z,16.00
2018-07-28T22:00:51.385Z,15.90
2018-07-28T22:03:20.749Z,15.80
2018-07-28T22:05:50.061Z,15.80
2018-07-28T22:08:19.385Z,15.80
2018-07-28T22:10:48.687Z,15.70
2018-07-28T22:13:18.173Z,15.70
2018-07-28T22:15:47.503Z,15.60
2018-07-28T22:18:16.788Z,15.50
2018-07-28T22:20:46.236Z,15.50
2018-07-28T22:23:15.583Z,15.50
2018-07-28T22:25:44.920Z,15.30
2018-07-28T22:28:14.281Z,15.30
2018-07-28T22:30:43.608Z,15.40
2018-07-28T22:33:12.987Z,15.40
2018-07-28T22:35:42.365Z,15.40
2018-07-28T22:38:11.705Z,15.40
2018-07-28T22:40:41.014Z,15.30
2018-07-28T22:43:10.291Z,15.20
2018-07-28T22:45:39.578Z,15.20
2018-07-28T22:48:09.009Z,15.10
2018-07-28T22:50:38.303Z,15.00
2018-07-28T22:53:08.512Z,14.90
2018-07-28T22:55:37.805Z,15.00
2018-07-28T22:58:07.187Z,14.90
2018-07-28T23:00:36.639Z,14.90
2018-07-28T23:03:05.943Z,14.90
2018-07-28T23:05:36.297Z,14.90
2018-07-28T23:08:05.641Z,15.00
2018-07-28T23:10:35.009Z,14.90
2018-07-28T23:13:04.349Z,14.80
2018-07-28T23:15:33.693Z,14.80
2018-07-28T23:18:03.139Z,14.70
2018-07-28T23:20:32.484Z,14.60
2018-07-28T23:23:01.805Z,14.60
2018-07-28T23:25:31.341Z,14.60
2018-07-28T23:28:00.751Z,14.60
2018-07-28T23:30:30.136Z,14.60
2018-07-28T23:32:59.464Z,14.60
2018-07-28T23:35:28.900Z,14.60
2018-07-28T23:37:58.340Z,14.50
2018-07-28T23:40:27.913Z,14.40
2018-07-28T23:42:57.297Z,14.40
2018-07-28T23:45:26.771Z,14.30
2018-07-28T23:47:56.060Z,14.30
2018-07-28T23:50:25.397Z,14.30
2018-07-28T23:52:54.697Z,14.40
2018-07-28T23:55:24.048Z,14.40
2018-07-28T23:57:53.453Z,14.40
